Time;durP1;ratioP1;P1;durP2;ratioP2;P2;SDS_P1;SDS_P2;PMS_P1;PMS_P2;Temp;Humidity;BMP_temperature;BMP_pressure;BME280_temperature;BME280_humidity;BME280_pressure;Samples;Min_cycle;Max_cycle;Signal;HPM_P1;HPM_P2
2021/05/21 00:00:06;;;;;;;3.63;2.35;;;;;;;7.92;100.00;95974.47;1040339;28;20263;-50
2021/05/21 00:00:38;;;;;;;4.38;2.17;;;;;;;7.96;100.00;95972.53;1036213;28;20253;-48
2021/05/21 00:01:09;;;;;;;4.40;2.55;;;;;;;7.97;100.00;95972.41;1036149;28;20277;-51
2021/05/21 00:01:40;;;;;;;4.80;2.03;;;;;;;7.98;100.00;95966.28;1044525;28;20255;-49
2021/05/21 00:02:11;;;;;;;5.13;2.28;;;;;;;7.95;100.00;95969.06;1036199;28;20032;-49
2021/05/21 00:02:42;;;;;;;4.57;2.10;;;;;;;7.94;100.00;95970.00;1036175;28;20647;-51
2021/05/21 00:03:13;;;;;;;3.38;2.05;;;;;;;7.98;100.00;95966.28;1044512;28;20301;-49
2021/05/21 00:03:44;;;;;;;4.80;2.83;;;;;;;7.97;100.00;95969.81;1036113;28;20021;-49
2021/05/21 00:04:15;;;;;;;4.70;2.72;;;;;;;8.01;100.00;95967.03;1040328;28;20018;-51
2021/05/21 00:04:46;;;;;;;3.53;2.20;;;;;;;7.97;100.00;95967.19;1040293;28;20777;-49
2021/05/21 00:05:17;;;;;;;3.75;2.30;;;;;;;7.93;100.00;95965.72;1036278;28;20010;-49
2021/05/21 00:05:48;;;;;;;3.92;2.25;;;;;;;7.91;100.00;95958.91;1036231;28;20253;-49
2021/05/21 00:06:19;;;;;;;4.70;2.65;;;;;;;7.91;100.00;95953.69;1040243;28;20109;-50
2021/05/21 00:06:49;;;;;;;4.32;2.30;;;;;;;7.96;100.00;95949.88;1040165;28;20014;-49
2021/05/21 00:07:20;;;;;;;3.83;2.53;;;;;;;7.96;100.00;95949.88;1040407;28;20044;-50
2021/05/21 00:07:52;;;;;;;7.20;2.30;;;;;;;7.98;100.00;95945.41;1040400;28;20040;-49
2021/05/21 00:08:23;;;;;;;3.70;2.20;;;;;;;7.94;100.00;95943.09;1032243;28;20383;-49
2021/05/21 00:08:54;;;;;;;4.38;2.72;;;;;;;7.92;100.00;95943.19;1040227;28;20846;-48
2021/05/21 00:09:25;;;;;;;4.13;2.33;;;;;;;7.88;100.00;95944.31;1036245;28;20284;-49
2021/05/21 00:09:55;;;;;;;5.95;2.50;;;;;;;7.93;100.00;95944.00;1040347;28;20532;-49
2021/05/21 00:10:26;;;;;;;5.30;2.10;;;;;;;7.88;100.00;95946.03;1044440;28;20033;-50
2021/05/21 00:10:57;;;;;;;5.22;2.42;;;;;;;7.85;100.00;95943.63;1040205;28;20025;-49
2021/05/21 00:11:28;;;;;;;4.05;2.40;;;;;;;7.87;100.00;95947.00;1032338;28;20480;-50
2021/05/21 00:11:59;;;;;;;3.83;2.65;;;;;;;7.87;100.00;95942.59;1040368;28;20025;-49
2021/05/21 00:12:30;;;;;;;4.28;2.50;;;;;;;7.93;100.00;95939.63;1032166;28;20692;-50
2021/05/21 00:13:01;;;;;;;4.07;2.80;;;;;;;7.95;100.00;95936.94;1040276;28;20029;-49
2021/05/21 00:13:32;;;;;;;3.60;2.60;;;;;;;7.92;100.00;95940.56;1040198;28;20068;-48
2021/05/21 00:14:03;;;;;;;3.78;2.30;;;;;;;7.91;100.00;95938.88;1032116;28;20667;-49
2021/05/21 00:14:34;;;;;;;3.90;2.33;;;;;;;7.95;100.00;95937.75;1040371;28;20021;-48
2021/05/21 00:15:06;;;;;;;4.55;2.60;;;;;;;7.95;100.00;95934.31;1036157;28;20113;-49
2021/05/21 00:15:37;;;;;;;3.78;2.20;;;;;;;7.94;100.00;95933.50;1036157;28;20260;-48
2021/05/21 00:16:08;;;;;;;3.45;2.35;;;;;;;7.86;100.00;95930.47;1036222;28;20248;-49
2021/05/21 00:16:39;;;;;;;7.18;2.80;;;;;;;7.90;100.00;95939.81;1036266;28;20340;-51
2021/05/21 00:17:10;;;;;;;3.83;2.50;;;;;;;7.91;100.00;95928.44;1036145;28;20061;-49
2021/05/21 00:17:41;;;;;;;4.25;2.50;;;;;;;7.95;100.00;95939.53;1032191;28;20249;-49
2021/05/21 00:18:12;;;;;;;4.47;2.58;;;;;;;7.95;100.00;95935.16;1040375;28;20018;-49
2021/05/21 00:18:46;;;;;;;4.88;2.33;;;;;;;7.95;100.00;95926.50;1040330;28;20244;-49
2021/05/21 00:19:17;;;;;;;4.93;2.33;;;;;;;7.93;100.00;95933.56;1040186;28;20471;-49
2021/05/21 00:19:48;;;;;;;4.22;2.42;;;;;;;7.93;100.00;95930.97;1036240;28;20283;-50
2021/05/21 00:20:19;;;;;;;4.65;2.72;;;;;;;7.93;100.00;95937.00;1032197;28;20014;-49
2021/05/21 00:20:50;;;;;;;4.53;2.58;;;;;;;7.93;100.00;95938.78;1032227;28;20026;-49
2021/05/21 00:21:21;;;;;;;3.70;2.78;;;;;;;7.95;100.00;95932.53;1036080;28;20554;-49
2021/05/21 00:21:52;;;;;;;4.00;2.78;;;;;;;7.97;100.00;95925.47;1040314;28;20033;-50
2021/05/21 00:22:24;;;;;;;4.90;2.55;;;;;;;7.96;100.00;95925.56;1036168;28;20770;-51
2021/05/21 00:22:55;;;;;;;3.65;2.38;;;;;;;8.03;100.00;95926.03;1040296;28;20287;-49
2021/05/21 00:23:26;;;;;;;3.55;2.45;;;;;;;8.04;100.00;95930.31;1035990;28;20277;-50
2021/05/21 00:23:56;;;;;;;5.13;2.50;;;;;;;8.00;100.00;95928.84;1032023;28;20026;-50
2021/05/21 00:24:28;;;;;;;4.65;3.00;;;;;;;7.89;100.00;95925.09;1036197;28;20038;-50
2021/05/21 00:24:58;;;;;;;3.80;2.45;;;;;;;7.84;100.00;95928.91;1032192;28;20110;-49
2021/05/21 00:25:29;;;;;;;3.95;2.40;;;;;;;7.88;100.00;95926.03;1036058;28;20265;-50
2021/05/21 00:26:00;;;;;;;3.83;2.50;;;;;;;7.87;100.00;95926.97;1036366;28;20080;-49
2021/05/21 00:26:31;;;;;;;5.45;2.63;;;;;;;7.89;100.00;95926.88;1036167;28;20026;-51
2021/05/21 00:27:02;;;;;;;4.10;2.80;;;;;;;7.89;100.00;95932.91;1036244;28;20474;-49
2021/05/21 00:27:33;;;;;;;5.00;2.80;;;;;;;7.93;100.00;95930.97;1044222;28;20095;-50
2021/05/21 00:28:04;;;;;;;3.80;2.67;;;;;;;7.90;100.00;95924.19;1036168;28;20306;-48
2021/05/21 00:28:35;;;;;;;3.67;2.60;;;;;;;7.95;100.00;95926.50;1044317;28;20293;-49
2021/05/21 00:29:06;;;;;;;3.50;2.47;;;;;;;7.83;100.00;95932.44;1044430;28;20021;-50
2021/05/21 00:29:37;;;;;;;4.45;2.72;;;;;;;7.84;100.00;95928.91;1036130;28;20658;-50
2021/05/21 00:30:10;;;;;;;5.07;2.40;;;;;;;7.86;100.00;95934.88;1036184;28;20257;-49
2021/05/21 00:30:41;;;;;;;4.15;2.63;;;;;;;7.88;100.00;95933.88;1036157;28;20017;-49
2021/05/21 00:31:12;;;;;;;4.47;2.42;;;;;;;7.89;100.00;95927.69;1040283;28;20327;-50
2021/05/21 00:31:43;;;;;;;4.22;2.70;;;;;;;7.89;100.00;95929.47;1040178;28;20461;-49
2021/05/21 00:32:14;;;;;;;3.70;2.63;;;;;;;7.88;100.00;95925.19;1036107;28;20318;-47
2021/05/21 00:32:45;;;;;;;3.42;2.40;;;;;;;7.86;100.00;95925.25;1036112;28;20307;-50
2021/05/21 00:33:16;;;;;;;5.72;2.70;;;;;;;7.89;100.00;95922.47;1032160;28;20077;-48
2021/05/21 00:33:49;;;;;;;5.45;2.67;;;;;;;7.85;100.00;95921.00;1031389;28;20742;-49
2021/05/21 00:34:20;;;;;;;5.22;2.55;;;;;;;7.80;100.00;95920.44;1040311;28;20068;-49
2021/05/21 00:34:50;;;;;;;4.82;2.40;;;;;;;7.79;100.00;95922.19;1040208;28;20729;-49
2021/05/21 00:35:22;;;;;;;4.28;2.40;;;;;;;7.86;100.00;95920.03;1032203;28;20041;-50
2021/05/21 00:35:53;;;;;;;3.70;2.47;;;;;;;7.86;100.00;95921.81;1040207;28;20028;-49
2021/05/21 00:36:23;;;;;;;5.43;2.63;;;;;;;7.85;100.00;95915.78;1032035;28;20361;-49
2021/05/21 00:36:55;;;;;;;5.03;2.50;;;;;;;7.81;100.00;95916.91;1036082;28;20257;-48
2021/05/21 00:37:26;;;;;;;6.15;2.63;;;;;;;7.84;100.00;95913.25;1032135;28;20026;-51
2021/05/21 00:37:57;;;;;;;4.57;2.60;;;;;;;7.84;100.00;95913.25;1031935;28;20328;-50
2021/05/21 00:38:28;;;;;;;3.15;2.28;;;;;;;7.82;100.00;95915.13;1032143;28;20262;-49
2021/05/21 00:38:59;;;;;;;3.88;2.20;;;;;;;7.81;100.00;95908.22;1032186;28;20272;-49
2021/05/21 00:39:30;;;;;;;4.82;2.10;;;;;;;7.83;100.00;95902.00;1036089;28;20635;-49
2021/05/21 00:40:03;;;;;;;5.95;2.28;;;;;;;7.84;100.00;95911.47;1044308;28;20021;-48
2021/05/21 00:40:34;;;;;;;3.60;2.17;;;;;;;7.84;100.00;95908.88;1036125;28;20730;-50
2021/05/21 00:41:05;;;;;;;5.15;2.28;;;;;;;7.82;100.00;95915.94;1032015;28;20261;-49
2021/05/21 00:41:36;;;;;;;3.55;2.08;;;;;;;7.78;100.00;95907.47;1032006;28;20364;-50
2021/05/21 00:42:08;;;;;;;4.80;1.95;;;;;;;7.81;100.00;95909.06;1031883;28;20092;-49
2021/05/21 00:42:39;;;;;;;4.15;2.17;;;;;;;7.81;100.00;95903.84;1032133;28;20022;-49
2021/05/21 00:43:10;;;;;;;5.00;2.47;;;;;;;7.84;100.00;95895.00;1036154;28;20260;-51
2021/05/21 00:43:41;;;;;;;4.00;2.60;;;;;;;7.81;100.00;95895.16;1040161;28;20294;-49
2021/05/21 00:44:13;;;;;;;3.22;2.30;;;;;;;7.85;100.00;95894.91;1036066;28;20330;-51
2021/05/21 00:44:52;;;;;;;3.60;2.45;;;;;;;7.81;100.00;95895.16;1036172;28;20021;-49
2021/05/21 00:45:23;;;;;;;4.75;2.35;;;;;;;7.79;100.00;95900.50;1036120;28;20750;-49
2021/05/21 00:45:54;;;;;;;3.47;2.08;;;;;;;7.72;100.00;95901.78;1036079;28;20626;-51
2021/05/21 00:46:25;;;;;;;5.47;2.20;;;;;;;7.67;100.00;95894.22;1035917;28;20268;-50
2021/05/21 00:46:56;;;;;;;4.45;2.05;;;;;;;7.65;100.00;95893.50;1040192;28;20028;-49
2021/05/21 00:47:28;;;;;;;3.30;2.00;;;;;;;7.67;100.00;95898.63;1036125;28;20475;-48
2021/05/21 00:47:59;;;;;;;3.85;2.22;;;;;;;7.68;100.00;95897.69;1032060;28;20327;-50
2021/05/21 00:48:30;;;;;;;3.58;2.20;;;;;;;7.68;100.00;95897.69;1044223;28;20318;-51
2021/05/21 00:49:01;;;;;;;3.83;2.40;;;;;;;7.67;100.00;95891.63;1036141;28;20292;-49
2021/05/21 00:49:33;;;;;;;3.63;2.25;;;;;;;7.71;100.00;95892.28;1036106;28;20312;-50
2021/05/21 00:50:05;;;;;;;3.63;2.33;;;;;;;7.69;100.00;95894.16;1032054;28;20265;-49
2021/05/21 00:50:36;;;;;;;3.28;2.00;;;;;;;7.65;100.00;95892.66;1035988;28;20761;-48
2021/05/21 00:51:07;;;;;;;4.47;1.90;;;;;;;7.69;100.00;95897.59;1036092;28;20285;-49
2021/05/21 00:51:37;;;;;;;5.32;2.50;;;;;;;7.69;100.00;95896.75;1032042;28;20019;-50
2021/05/21 00:52:08;;;;;;;5.30;2.50;;;;;;;7.67;100.00;95890.78;1040171;28;20039;-51
2021/05/21 00:52:41;;;;;;;3.95;1.90;;;;;;;7.68;100.00;95893.31;1040091;28;20104;-49
2021/05/21 00:53:12;;;;;;;4.13;2.45;;;;;;;7.65;100.00;95892.66;1040247;28;20090;-50
2021/05/21 00:53:43;;;;;;;6.95;1.88;;;;;;;7.68;100.00;95884.66;1040009;28;20548;-49
2021/05/21 00:54:16;;;;;;;5.70;2.35;;;;;;;7.71;100.00;95892.28;1035810;28;20026;-48
2021/05/21 00:54:47;;;;;;;3.63;2.13;;;;;;;7.71;100.00;95887.06;1031898;28;20472;-48
2021/05/21 00:55:19;;;;;;;4.10;2.17;;;;;;;7.73;100.00;95888.66;1028056;28;20315;-49
2021/05/21 00:55:51;;;;;;;4.70;1.90;;;;;;;7.69;100.00;95889.75;1028086;28;20551;-49
2021/05/21 00:56:22;;;;;;;4.72;2.17;;;;;;;7.70;100.00;95885.41;1032094;28;20649;-50
2021/05/21 00:56:52;;;;;;;3.25;1.80;;;;;;;7.71;100.00;95885.28;1036045;28;20264;-51
2021/05/21 00:57:23;;;;;;;3.55;2.42;;;;;;;7.73;100.00;95890.41;1036471;28;20487;-49
2021/05/21 00:57:54;;;;;;;3.45;1.98;;;;;;;7.70;100.00;95886.25;1032296;28;20113;-48
2021/05/21 00:58:26;;;;;;;6.05;2.42;;;;;;;7.69;100.00;95887.16;1036047;28;20021;-50
2021/05/21 00:58:58;;;;;;;5.10;2.17;;;;;;;7.65;100.00;95880.44;1040012;28;20343;-49
2021/05/21 00:59:29;;;;;;;3.10;1.80;;;;;;;7.62;100.00;95885.00;1032082;28;20704;-49
2021/05/21 01:00:00;;;;;;;3.30;1.85;;;;;;;7.64;100.00;95886.63;1036023;28;20295;-49
2021/05/21 01:00:31;;;;;;;4.47;2.10;;;;;;;7.63;100.00;95876.25;1027986;28;20280;-49
2021/05/21 01:01:03;;;;;;;4.53;2.05;;;;;;;7.66;100.00;95882.13;1027731;28;20528;-49
2021/05/21 01:01:34;;;;;;;2.97;1.90;;;;;;;7.69;100.00;95879.34;1036037;28;20301;-47
2021/05/21 01:02:06;;;;;;;3.53;1.80;;;;;;;7.71;100.00;95880.06;1032131;28;20277;-51
2021/05/21 01:02:37;;;;;;;4.35;1.60;;;;;;;7.76;100.00;95883.25;1027960;28;20362;-50
2021/05/21 01:03:08;;;;;;;4.32;1.75;;;;;;;7.74;100.00;95872.06;1036012;28;20861;-50
2021/05/21 01:03:39;;;;;;;3.15;2.10;;;;;;;7.71;100.00;95882.69;1035935;28;20269;-49
2021/05/21 01:04:10;;;;;;;2.63;1.58;;;;;;;7.66;100.00;95863.03;1032063;28;20026;-48
2021/05/21 01:04:41;;;;;;;3.45;2.10;;;;;;;7.78;100.00;95884.00;1028058;28;20783;-49
2021/05/21 01:05:13;;;;;;;3.70;2.17;;;;;;;7.74;100.00;95892.09;1031972;28;20288;-49
2021/05/21 01:05:44;;;;;;;3.05;1.80;;;;;;;7.76;100.00;95882.41;1032015;28;20025;-50
2021/05/21 01:06:15;;;;;;;3.42;2.15;;;;;;;7.74;100.00;95887.72;1032006;28;20769;-51
2021/05/21 01:06:47;;;;;;;4.10;1.80;;;;;;;7.74;100.00;95877.28;1044246;28;20025;-50
2021/05/21 01:07:19;;;;;;;4.65;1.92;;;;;;;7.77;100.00;95871.03;1035948;28;20292;-49
2021/05/21 01:07:50;;;;;;;5.13;1.88;;;;;;;7.70;100.00;95878.41;1032033;28;20237;-49
2021/05/21 01:08:21;;;;;;;3.85;1.65;;;;;;;7.73;100.00;95875.63;1031983;28;20300;-49
2021/05/21 01:08:54;;;;;;;3.22;1.80;;;;;;;7.67;100.00;95881.19;1035914;28;20261;-51
2021/05/21 01:09:25;;;;;;;3.42;1.92;;;;;;;7.71;100.00;95879.25;1035915;28;20033;-50
2021/05/21 01:09:57;;;;;;;3.95;1.85;;;;;;;7.71;100.00;95876.63;1032098;28;20326;-51
2021/05/21 01:10:27;;;;;;;3.15;1.63;;;;;;;7.68;100.00;95867.25;1040041;28;20788;-50
2021/05/21 01:10:59;;;;;;;3.08;1.77;;;;;;;7.69;100.00;95878.50;1036025;28;20269;-50
2021/05/21 01:11:30;;;;;;;7.30;1.95;;;;;;;7.69;100.00;95875.88;1036043;28;20025;-50
2021/05/21 01:12:01;;;;;;;5.13;2.00;;;;;;;7.69;100.00;95870.69;1040162;28;20060;-50
2021/05/21 01:12:32;;;;;;;4.38;1.70;;;;;;;7.66;100.00;95879.53;1031952;28;20258;-50
2021/05/21 01:13:03;;;;;;;3.15;1.92;;;;;;;7.69;100.00;95878.50;1036085;28;20056;-49
2021/05/21 01:13:34;;;;;;;3.33;1.60;;;;;;;7.63;100.00;95878.88;1035801;28;20080;-50
2021/05/21 01:14:05;;;;;;;5.03;1.80;;;;;;;7.63;100.00;95886.69;1031990;28;20273;-49
2021/05/21 01:14:46;;;;;;;4.10;1.80;;;;;;;7.68;100.00;95888.09;1031915;28;20642;-49
2021/05/21 01:15:18;;;;;;;3.50;1.95;;;;;;;7.68;100.00;95885.50;1031775;28;20077;-50
2021/05/21 01:15:49;;;;;;;4.55;1.90;;;;;;;7.63;100.00;95884.09;1032068;28;20271;-50
2021/05/21 01:16:20;;;;;;;3.17;1.77;;;;;;;7.63;100.00;95890.13;1032017;28;20014;-49
2021/05/21 01:16:50;;;;;;;3.58;2.28;;;;;;;7.68;100.00;95882.06;1040108;28;20271;-49
2021/05/21 01:17:22;;;;;;;3.50;1.80;;;;;;;7.70;100.00;95883.63;1035845;28;20034;-50
2021/05/21 01:17:53;;;;;;;2.85;1.63;;;;;;;7.69;100.00;95875.88;1028032;28;20465;-48
2021/05/21 01:18:24;;;;;;;4.35;1.90;;;;;;;7.68;100.00;95889.88;1031863;28;20257;-50
2021/05/21 01:18:56;;;;;;;4.75;1.73;;;;;;;7.61;100.00;95889.38;1028007;28;20074;-47
2021/05/21 01:19:27;;;;;;;4.15;1.88;;;;;;;7.66;100.00;95884.75;1027781;28;20319;-49
2021/05/21 01:19:58;;;;;;;4.57;1.85;;;;;;;7.72;100.00;95883.53;1040110;28;20259;-49
2021/05/21 01:20:31;;;;;;;7.63;2.10;;;;;;;7.74;100.00;95876.47;1035937;28;20510;-49
2021/05/21 01:21:02;;;;;;;2.78;1.60;;;;;;;7.77;100.00;95884.06;1031957;28;20308;-50
2021/05/21 01:21:35;;;;;;;3.55;1.88;;;;;;;7.75;100.00;95878.97;1031751;28;20878;-49
2021/05/21 01:22:06;;;;;;;2.88;1.85;;;;;;;7.73;100.00;95882.59;1035875;28;20123;-50
2021/05/21 01:22:37;;;;;;;2.95;1.80;;;;;;;7.71;100.00;95881.84;1039979;28;20677;-49
2021/05/21 01:23:08;;;;;;;3.65;1.75;;;;;;;7.70;100.00;95883.63;1027860;28;20058;-50
2021/05/21 01:23:39;;;;;;;3.00;1.83;;;;;;;7.68;100.00;95882.88;1031653;28;20014;-49
2021/05/21 01:24:11;;;;;;;3.60;2.15;;;;;;;7.71;100.00;95869.63;1035908;28;20032;-51
2021/05/21 01:24:42;;;;;;;3.95;1.58;;;;;;;7.76;100.00;95875.44;1027939;28;20289;-51
2021/05/21 01:25:13;;;;;;;4.50;1.70;;;;;;;7.74;100.00;95863.41;1040022;28;20331;-48
2021/05/21 01:25:44;;;;;;;2.60;1.70;;;;;;;7.77;100.00;95861.47;1035837;28;20797;-49
2021/05/21 01:26:15;;;;;;;4.07;2.08;;;;;;;7.80;100.00;95860.44;1035975;28;20017;-48
2021/05/21 01:26:46;;;;;;;3.50;2.15;;;;;;;7.78;100.00;95852.69;1031790;28;20340;-52
2021/05/21 01:27:18;;;;;;;2.65;1.60;;;;;;;7.75;100.00;95852.03;1036021;28;20064;-49
2021/05/21 01:27:50;;;;;;;3.97;1.83;;;;;;;7.73;100.00;95856.50;1035852;28;20257;-49
2021/05/21 01:28:21;;;;;;;4.10;2.13;;;;;;;7.68;100.00;95855.97;1031872;28;20629;-49
2021/05/21 01:28:53;;;;;;;3.20;1.80;;;;;;;7.63;100.00;95858.84;1035912;28;20368;-49
2021/05/21 01:29:24;;;;;;;3.28;1.95;;;;;;;7.68;100.00;95861.19;1031833;28;20325;-48
2021/05/21 01:29:55;;;;;;;3.13;1.70;;;;;;;7.61;100.00;95857.28;1031757;28;20262;-50
2021/05/21 01:30:27;;;;;;;4.25;1.83;;;;;;;7.62;100.00;95859.78;1027880;28;20254;-50
2021/05/21 01:30:58;;;;;;;3.33;1.95;;;;;;;7.59;100.00;95855.56;1031852;28;20323;-49
2021/05/21 01:31:30;;;;;;;6.88;2.20;;;;;;;7.63;100.00;95847.59;1035931;28;20265;-49
2021/05/21 01:32:02;;;;;;;4.40;1.73;;;;;;;7.66;100.00;95848.25;1031663;28;20262;-48
2021/05/21 01:32:33;;;;;;;4.40;1.98;;;;;;;7.66;100.00;95842.16;1031914;28;20246;-49
2021/05/21 01:33:06;;;;;;;4.90;2.13;;;;;;;7.66;100.00;95842.16;1031884;28;20261;-49
2021/05/21 01:33:37;;;;;;;3.13;1.60;;;;;;;7.68;100.00;95837.72;1031660;28;20257;-48
2021/05/21 01:34:09;;;;;;;2.80;1.60;;;;;;;7.69;100.00;95837.59;1031735;28;20264;-49
2021/05/21 01:34:41;;;;;;;3.83;1.63;;;;;;;7.67;100.00;95842.06;1027859;28;20254;-51
2021/05/21 01:35:12;;;;;;;3.55;1.88;;;;;;;7.65;100.00;95843.94;1035837;28;20364;-50
2021/05/21 01:35:43;;;;;;;6.22;1.98;;;;;;;7.62;100.00;95841.53;1031884;28;20269;-48
2021/05/21 01:36:14;;;;;;;4.35;1.85;;;;;;;7.49;100.00;95827.53;1035775;28;20631;-49
2021/05/21 01:36:47;;;;;;;2.83;1.60;;;;;;;7.57;100.00;95839.19;1031929;28;20643;-50
2021/05/21 01:37:20;;;;;;;3.35;1.60;;;;;;;7.59;100.00;95836.50;1035914;28;20261;-48
2021/05/21 01:37:51;;;;;;;3.28;1.85;;;;;;;7.63;100.00;95834.53;1035937;28;20332;-51
2021/05/21 01:38:22;;;;;;;2.58;1.65;;;;;;;7.70;100.00;95838.47;1035806;28;20261;-50
2021/05/21 01:38:55;;;;;;;2.88;1.70;;;;;;;7.72;100.00;95836.59;1031855;28;20257;-49
2021/05/21 01:39:39;;;;;;;3.40;1.85;;;;;;;7.62;100.00;95844.16;1039929;28;20026;-51
2021/05/21 01:40:12;;;;;;;4.72;2.03;;;;;;;7.60;100.00;95838.16;1031863;28;20257;-50
2021/05/21 01:40:43;;;;;;;3.30;1.70;;;;;;;7.63;100.00;95835.38;1031892;28;20261;-50
2021/05/21 01:41:15;;;;;;;3.47;1.80;;;;;;;7.67;100.00;95839.47;1035821;28;20264;-50
2021/05/21 01:41:47;;;;;;;3.83;1.90;;;;;;;7.66;100.00;95832.59;1031858;28;20253;-49
2021/05/21 01:42:19;;;;;;;4.60;2.00;;;;;;;7.61;100.00;95826.81;1031678;28;20030;-49
2021/05/21 01:42:50;;;;;;;3.10;1.95;;;;;;;7.58;100.00;95827.00;1035945;28;20253;-47
2021/05/21 01:43:21;;;;;;;3.15;1.85;;;;;;;7.59;100.00;95824.28;1031861;28;20525;-49
2021/05/21 01:43:54;;;;;;;3.10;1.85;;;;;;;7.60;100.00;95827.72;1035735;28;20261;-50
2021/05/21 01:44:25;;;;;;;2.95;1.60;;;;;;;7.63;100.00;95824.13;1031678;28;20022;-49
2021/05/21 01:44:56;;;;;;;3.30;1.60;;;;;;;7.65;100.00;95827.47;1035862;28;20284;-48
2021/05/21 01:45:27;;;;;;;3.50;1.55;;;;;;;7.66;100.00;95829.13;1031315;28;20056;-51
2021/05/21 01:45:58;;;;;;;2.85;1.85;;;;;;;7.70;100.00;95817.59;1035731;28;20260;-49
2021/05/21 01:46:30;;;;;;;3.53;1.92;;;;;;;7.67;100.00;95823.00;1035702;28;20018;-48
2021/05/21 01:47:01;;;;;;;4.45;1.92;;;;;;;7.68;100.00;95827.28;1031991;28;20813;-48
2021/05/21 01:47:32;;;;;;;3.20;1.70;;;;;;;7.68;100.00;95829.91;1039947;28;20314;-49
2021/05/21 01:48:04;;;;;;;3.53;1.58;;;;;;;7.65;100.00;95830.91;1035939;28;20033;-51
2021/05/21 01:48:35;;;;;;;4.97;1.70;;;;;;;7.65;100.00;95830.06;1031804;28;20678;-49
2021/05/21 01:49:06;;;;;;;4.25;1.80;;;;;;;7.59;100.00;95826.06;1035867;28;20269;-49
2021/05/21 01:49:37;;;;;;;3.90;1.67;;;;;;;7.59;100.00;95829.50;1035906;28;20073;-48
2021/05/21 01:50:10;;;;;;;3.75;1.67;;;;;;;7.62;100.00;95828.50;1039977;28;20271;-50
2021/05/21 01:50:42;;;;;;;3.13;1.67;;;;;;;7.58;100.00;95822.63;1031651;28;20273;-47
2021/05/21 01:51:13;;;;;;;5.25;1.80;;;;;;;7.62;100.00;95830.25;1035908;28;20812;-51
2021/05/21 01:51:58;;;;;;;3.45;1.70;;;;;;;7.63;100.00;95826.72;1035858;28;20257;-50
2021/05/21 01:52:29;;;;;;;4.38;1.70;;;;;;;7.53;100.00;95824.66;1039928;28;20113;-49
2021/05/21 01:53:00;;;;;;;2.75;1.60;;;;;;;7.54;100.00;95830.72;1035746;28;20284;-49
2021/05/21 01:53:34;;;;;;;3.55;1.90;;;;;;;7.53;100.00;95827.28;1043903;28;20075;-50
2021/05/21 01:54:16;;;;;;;3.25;1.45;;;;;;;7.45;100.00;95811.28;1039932;28;20453;-49
2021/05/21 01:54:47;;;;;;;8.25;1.77;;;;;;;7.46;100.00;95823.34;1035728;28;20255;-50
2021/05/21 01:55:18;;;;;;;4.45;1.73;;;;;;;7.47;100.00;95832.88;1035802;28;20622;-50
2021/05/21 01:55:50;;;;;;;3.60;1.98;;;;;;;7.50;100.00;95824.84;1027851;28;20106;-51
2021/05/21 01:56:24;;;;;;;4.80;2.00;;;;;;;7.44;100.00;95822.63;1031805;28;20249;-52
2021/05/21 01:56:56;;;;;;;3.47;1.50;;;;;;;7.44;100.00;95825.22;1035675;28;20257;-50
2021/05/21 01:57:27;;;;;;;3.90;1.80;;;;;;;7.40;100.00;95829.78;1031699;28;20269;-48
2021/05/21 01:57:58;;;;;;;3.08;1.70;;;;;;;7.45;100.00;95823.44;1039918;28;20339;-51
2021/05/21 01:58:30;;;;;;;3.47;1.60;;;;;;;7.47;100.00;95822.44;1031742;28;20257;-49
2021/05/21 01:59:01;;;;;;;3.63;2.03;;;;;;;7.48;100.00;95823.28;1031700;28;20022;-49
2021/05/21 01:59:32;;;;;;;3.22;1.50;;;;;;;7.47;100.00;95824.19;1035834;28;20265;-50
2021/05/21 02:00:05;;;;;;;3.17;1.70;;;;;;;7.46;100.00;95815.53;1031836;28;20352;-49
2021/05/21 02:00:35;;;;;;;3.30;2.00;;;;;;;7.43;100.00;95820.91;1031821;28;20253;-50
2021/05/21 02:01:07;;;;;;;5.47;1.77;;;;;;;7.38;100.00;95828.19;1027488;28;20266;-49
2021/05/21 02:01:38;;;;;;;7.30;1.58;;;;;;;7.41;100.00;95822.78;1035912;28;20584;-50
2021/05/21 02:02:09;;;;;;;4.30;1.60;;;;;;;7.39;100.00;95811.63;1031571;28;20357;-49
2021/05/21 02:02:40;;;;;;;3.08;1.70;;;;;;;7.49;100.00;95822.31;1031715;28;20262;-49
2021/05/21 02:03:11;;;;;;;3.65;1.90;;;;;;;7.44;100.00;95822.63;1035729;28;20257;-49
2021/05/21 02:03:42;;;;;;;3.10;1.60;;;;;;;7.44;100.00;95822.63;1039744;28;20041;-48
2021/05/21 02:04:13;;;;;;;3.63;1.70;;;;;;;7.38;100.00;95818.59;1031720;28;20033;-50
2021/05/21 02:04:45;;;;;;;4.60;2.00;;;;;;;7.39;100.00;95819.44;1027807;28;20266;-50
2021/05/21 02:05:16;;;;;;;4.55;2.17;;;;;;;7.43;100.00;95818.31;1035666;28;20318;-50
2021/05/21 02:05:47;;;;;;;3.08;1.50;;;;;;;7.37;100.00;95816.91;1027786;28;20262;-50
2021/05/21 02:06:18;;;;;;;3.35;1.63;;;;;;;7.39;100.00;95817.69;1031732;28;20265;-50
2021/05/21 02:06:49;;;;;;;3.05;1.65;;;;;;;7.35;100.00;95815.34;1027671;28;20294;-49
2021/05/21 02:07:20;;;;;;;4.00;1.80;;;;;;;7.32;100.00;95820.72;1027716;28;20476;-49
2021/05/21 02:07:51;;;;;;;2.63;1.70;;;;;;;7.33;100.00;95820.63;1027751;28;20026;-49
2021/05/21 02:08:25;;;;;;;3.40;1.48;;;;;;;7.25;100.00;95820.28;1031744;28;20319;-51
2021/05/21 02:08:55;;;;;;;3.83;1.70;;;;;;;7.30;100.00;95819.97;1031741;28;20676;-49
2021/05/21 02:09:27;;;;;;;3.75;1.67;;;;;;;7.27;100.00;95820.19;1031660;28;20265;-50
2021/05/21 02:10:02;;;;;;;2.97;1.73;;;;;;;7.33;100.00;95827.63;1031728;28;20081;-49
2021/05/21 02:10:33;;;;;;;4.13;1.50;;;;;;;7.31;100.00;95826.88;1031714;28;20364;-48
2021/05/21 02:11:04;;;;;;;3.47;1.67;;;;;;;7.30;100.00;95819.97;1035742;28;20338;-50
2021/05/21 02:11:36;;;;;;;2.67;1.50;;;;;;;7.34;100.00;95818.91;1031611;28;20019;-48
2021/05/21 02:12:07;;;;;;;4.35;1.60;;;;;;;7.33;100.00;95823.25;1031695;28;20270;-50
2021/05/21 02:12:41;;;;;;;3.30;1.73;;;;;;;7.34;100.00;95824.94;1039812;28;20260;-51
2021/05/21 02:13:12;;;;;;;3.25;1.58;;;;;;;7.38;100.00;95812.56;1039866;28;20258;-49
2021/05/21 02:13:43;;;;;;;4.10;1.73;;;;;;;7.39;100.00;95820.28;1035398;28;20253;-50
2021/05/21 02:14:14;;;;;;;4.47;1.65;;;;;;;7.39;100.00;95809.00;1035774;28;20564;-50
2021/05/21 02:14:45;;;;;;;4.03;1.80;;;;;;;7.38;100.00;95808.19;1039732;28;20322;-49
2021/05/21 02:15:16;;;;;;;5.22;1.70;;;;;;;7.38;100.00;95802.97;1035872;28;20068;-50
2021/05/21 02:15:47;;;;;;;3.50;1.60;;;;;;;7.39;100.00;95806.41;1035611;28;20028;-50
2021/05/21 02:16:18;;;;;;;3.63;1.52;;;;;;;7.39;100.00;95816.84;1035774;28;20261;-49
2021/05/21 02:16:49;;;;;;;3.90;1.90;;;;;;;7.35;100.00;95810.97;1035810;28;20626;-49
2021/05/21 02:17:21;;;;;;;2.85;1.42;;;;;;;7.35;100.00;95807.53;1035776;28;20021;-50
2021/05/21 02:17:52;;;;;;;4.53;1.70;;;;;;;7.36;100.00;95804.00;1027582;28;20026;-50
2021/05/21 02:18:23;;;;;;;3.47;1.90;;;;;;;7.30;100.00;95814.78;1035809;28;20253;-49
2021/05/21 02:18:54;;;;;;;3.22;1.60;;;;;;;7.28;100.00;95811.41;1035843;28;20253;-50
2021/05/21 02:19:25;;;;;;;2.30;1.40;;;;;;;7.31;100.00;95809.47;1035731;28;20084;-49
2021/05/21 02:19:59;;;;;;;2.60;1.60;;;;;;;7.31;100.00;95808.66;1031687;28;20257;-49
2021/05/21 02:20:30;;;;;;;6.70;1.85;;;;;;;7.24;100.00;95809.94;1027692;28;20882;-48
2021/05/21 02:21:01;;;;;;;3.00;1.60;;;;;;;7.25;100.00;95811.63;1035801;28;20307;-50
2021/05/21 02:21:32;;;;;;;3.58;1.90;;;;;;;7.26;100.00;95810.69;1035663;28;20018;-49
2021/05/21 02:22:03;;;;;;;5.93;1.80;;;;;;;7.19;100.00;95805.84;1031640;28;20035;-50
2021/05/21 02:22:37;;;;;;;2.80;1.58;;;;;;;7.19;100.00;95805.00;1035704;28;20245;-49
2021/05/21 02:23:08;;;;;;;4.32;1.70;;;;;;;7.20;100.00;95801.44;1035859;28;20018;-49
2021/05/21 02:23:39;;;;;;;5.00;1.60;;;;;;;7.23;100.00;95811.72;1031584;28;20246;-49
2021/05/21 02:24:10;;;;;;;3.45;1.50;;;;;;;7.25;100.00;95796.00;1031617;28;20265;-48
2021/05/21 02:24:41;;;;;;;2.30;1.40;;;;;;;7.29;100.00;95797.47;1035739;28;20014;-49
2021/05/21 02:25:14;;;;;;;2.75;1.40;;;;;;;7.31;100.00;95795.63;1031663;28;20258;-49
2021/05/21 02:25:47;;;;;;;4.78;1.52;;;;;;;7.28;100.00;95795.78;1031744;28;20488;-49
2021/05/21 02:26:18;;;;;;;4.10;1.60;;;;;;;7.27;100.00;95792.34;1031588;28;20246;-49
2021/05/21 02:26:49;;;;;;;3.25;1.65;;;;;;;7.27;100.00;95797.56;1031677;28;20340;-50
2021/05/21 02:27:22;;;;;;;2.42;1.30;;;;;;;7.29;100.00;95800.91;1031745;28;20242;-48
2021/05/21 02:27:53;;;;;;;2.80;1.30;;;;;;;7.27;100.00;95789.75;1027706;28;20262;-48
2021/05/21 02:28:24;;;;;;;4.95;1.65;;;;;;;7.25;100.00;95796.00;1027849;28;20250;-51